sensor_id;sensor_type;location;lat;lon;timestamp;P1;durP1;ratioP1;P2;durP2;ratioP2
7941;SDS011;4016;50.758;7.150;2024-02-16T00:00:34;2.63;;;2.40;;
7941;SDS011;4016;50.758;7.150;2024-02-16T00:05:34;2.90;;;2.57;;
7941;SDS011;4016;50.758;7.150;2024-02-16T00:10:35;3.27;;;2.43;;
7941;SDS011;4016;50.758;7.150;2024-02-16T00:15:36;2.53;;;2.33;;
7941;SDS011;4016;50.758;7.150;2024-02-16T00:20:38;3.33;;;2.63;;
7941;SDS011;4016;50.758;7.150;2024-02-16T00:25:38;2.43;;;2.23;;
7941;SDS011;4016;50.758;7.150;2024-02-16T00:30:40;3.83;;;2.20;;
7941;SDS011;4016;50.758;7.150;2024-02-16T00:35:41;3.13;;;2.17;;
7941;SDS011;4016;50.758;7.150;2024-02-16T00:40:41;3.53;;;2.40;;
7941;SDS011;4016;50.758;7.150;2024-02-16T00:45:43;3.70;;;2.37;;
7941;SDS011;4016;50.758;7.150;2024-02-16T00:50:45;3.17;;;2.63;;
7941;SDS011;4016;50.758;7.150;2024-02-16T00:55:45;2.60;;;2.40;;
7941;SDS011;4016;50.758;7.150;2024-02-16T01:00:46;2.80;;;2.53;;
7941;SDS011;4016;50.758;7.150;2024-02-16T01:05:46;2.97;;;2.67;;
7941;SDS011;4016;50.758;7.150;2024-02-16T01:10:47;3.40;;;2.70;;
7941;SDS011;4016;50.758;7.150;2024-02-16T01:15:47;4.63;;;2.90;;
7941;SDS011;4016;50.758;7.150;2024-02-16T01:20:47;3.40;;;2.80;;
7941;SDS011;4016;50.758;7.150;2024-02-16T01:25:48;4.87;;;3.20;;
7941;SDS011;4016;50.758;7.150;2024-02-16T01:30:49;4.57;;;3.00;;
7941;SDS011;4016;50.758;7.150;2024-02-16T01:35:49;3.33;;;3.00;;
7941;SDS011;4016;50.758;7.150;2024-02-16T01:40:50;3.27;;;2.67;;
7941;SDS011;4016;50.758;7.150;2024-02-16T01:45:50;3.97;;;3.07;;
7941;SDS011;4016;50.758;7.150;2024-02-16T01:50:51;17.97;;;12.17;;
7941;SDS011;4016;50.758;7.150;2024-02-16T01:55:53;6.13;;;4.10;;
7941;SDS011;4016;50.758;7.150;2024-02-16T02:00:54;2.60;;;2.40;;
7941;SDS011;4016;50.758;7.150;2024-02-16T02:05:54;3.63;;;3.00;;
7941;SDS011;4016;50.758;7.150;2024-02-16T02:10:56;3.60;;;2.83;;
7941;SDS011;4016;50.758;7.150;2024-02-16T02:15:57;3.20;;;2.77;;
7941;SDS011;4016;50.758;7.150;2024-02-16T02:20:58;3.87;;;2.70;;
7941;SDS011;4016;50.758;7.150;2024-02-16T02:25:59;4.23;;;2.90;;
7941;SDS011;4016;50.758;7.150;2024-02-16T02:30:59;5.00;;;2.83;;
7941;SDS011;4016;50.758;7.150;2024-02-16T02:35:59;3.50;;;2.70;;
7941;SDS011;4016;50.758;7.150;2024-02-16T02:41:00;2.93;;;2.43;;
7941;SDS011;4016;50.758;7.150;2024-02-16T02:46:00;3.40;;;2.87;;
7941;SDS011;4016;50.758;7.150;2024-02-16T02:51:00;3.27;;;2.67;;
7941;SDS011;4016;50.758;7.150;2024-02-16T02:56:01;3.27;;;2.80;;
7941;SDS011;4016;50.758;7.150;2024-02-16T03:01:02;3.57;;;2.70;;
7941;SDS011;4016;50.758;7.150;2024-02-16T03:06:02;2.80;;;2.60;;
7941;SDS011;4016;50.758;7.150;2024-02-16T03:11:03;5.97;;;2.90;;
7941;SDS011;4016;50.758;7.150;2024-02-16T03:16:04;3.07;;;2.77;;
7941;SDS011;4016;50.758;7.150;2024-02-16T03:21:04;4.70;;;2.80;;
7941;SDS011;4016;50.758;7.150;2024-02-16T03:26:05;3.10;;;2.63;;
7941;SDS011;4016;50.758;7.150;2024-02-16T03:31:17;3.83;;;2.90;;
7941;SDS011;4016;50.758;7.150;2024-02-16T03:36:19;4.67;;;2.90;;
7941;SDS011;4016;50.758;7.150;2024-02-16T03:41:20;4.13;;;2.93;;
7941;SDS011;4016;50.758;7.150;2024-02-16T03:46:22;6.00;;;2.87;;
7941;SDS011;4016;50.758;7.150;2024-02-16T03:51:22;4.07;;;2.97;;
7941;SDS011;4016;50.758;7.150;2024-02-16T03:56:22;4.70;;;3.00;;
7941;SDS011;4016;50.758;7.150;2024-02-16T04:01:23;3.53;;;2.77;;
7941;SDS011;4016;50.758;7.150;2024-02-16T04:06:23;3.40;;;3.10;;
7941;SDS011;4016;50.758;7.150;2024-02-16T04:11:23;4.07;;;3.10;;
7941;SDS011;4016;50.758;7.150;2024-02-16T04:16:24;3.50;;;3.10;;
7941;SDS011;4016;50.758;7.150;2024-02-16T04:21:25;4.63;;;2.87;;
7941;SDS011;4016;50.758;7.150;2024-02-16T04:26:25;4.07;;;3.03;;
7941;SDS011;4016;50.758;7.150;2024-02-16T04:31:25;5.67;;;3.13;;
7941;SDS011;4016;50.758;7.150;2024-02-16T04:36:26;3.77;;;2.90;;
7941;SDS011;4016;50.758;7.150;2024-02-16T04:41:26;4.00;;;3.20;;
7941;SDS011;4016;50.758;7.150;2024-02-16T04:46:27;3.30;;;3.00;;
7941;SDS011;4016;50.758;7.150;2024-02-16T04:51:27;5.50;;;3.17;;
7941;SDS011;4016;50.758;7.150;2024-02-16T04:56:28;4.20;;;3.03;;
7941;SDS011;4016;50.758;7.150;2024-02-16T05:01:28;3.60;;;2.93;;
7941;SDS011;4016;50.758;7.150;2024-02-16T05:06:29;4.47;;;3.13;;
7941;SDS011;4016;50.758;7.150;2024-02-16T05:11:31;4.33;;;3.37;;
7941;SDS011;4016;50.758;7.150;2024-02-16T05:16:32;3.73;;;3.27;;
7941;SDS011;4016;50.758;7.150;2024-02-16T05:21:32;4.73;;;3.00;;
7941;SDS011;4016;50.758;7.150;2024-02-16T05:26:33;3.70;;;2.40;;
7941;SDS011;4016;50.758;7.150;2024-02-16T05:31:34;3.63;;;3.00;;
7941;SDS011;4016;50.758;7.150;2024-02-16T05:36:34;3.63;;;2.90;;
7941;SDS011;4016;50.758;7.150;2024-02-16T05:41:36;4.47;;;3.00;;
7941;SDS011;4016;50.758;7.150;2024-02-16T05:46:38;3.40;;;2.90;;
7941;SDS011;4016;50.758;7.150;2024-02-16T05:51:38;3.33;;;2.70;;
7941;SDS011;4016;50.758;7.150;2024-02-16T05:56:42;3.43;;;3.13;;
7941;SDS011;4016;50.758;7.150;2024-02-16T06:01:42;4.23;;;3.20;;
7941;SDS011;4016;50.758;7.150;2024-02-16T06:06:42;3.10;;;2.63;;
7941;SDS011;4016;50.758;7.150;2024-02-16T06:11:43;3.10;;;2.70;;
7941;SDS011;4016;50.758;7.150;2024-02-16T06:16:43;3.97;;;3.00;;
7941;SDS011;4016;50.758;7.150;2024-02-16T06:21:43;3.63;;;3.23;;
7941;SDS011;4016;50.758;7.150;2024-02-16T06:26:44;3.30;;;3.00;;
7941;SDS011;4016;50.758;7.150;2024-02-16T06:31:45;3.40;;;2.93;;
7941;SDS011;4016;50.758;7.150;2024-02-16T06:36:47;3.13;;;2.77;;
7941;SDS011;4016;50.758;7.150;2024-02-16T06:41:48;3.93;;;3.00;;
7941;SDS011;4016;50.758;7.150;2024-02-16T06:46:51;5.40;;;3.10;;
7941;SDS011;4016;50.758;7.150;2024-02-16T06:51:52;3.97;;;3.00;;
7941;SDS011;4016;50.758;7.150;2024-02-16T06:56:52;4.77;;;3.20;;
7941;SDS011;4016;50.758;7.150;2024-02-16T07:01:53;3.47;;;2.70;;
7941;SDS011;4016;50.758;7.150;2024-02-16T07:06:53;4.07;;;2.87;;
7941;SDS011;4016;50.758;7.150;2024-02-16T07:11:54;3.63;;;3.00;;
7941;SDS011;4016;50.758;7.150;2024-02-16T07:16:54;3.47;;;2.93;;
7941;SDS011;4016;50.758;7.150;2024-02-16T07:21:54;3.73;;;3.07;;
7941;SDS011;4016;50.758;7.150;2024-02-16T07:26:55;5.37;;;3.50;;
7941;SDS011;4016;50.758;7.150;2024-02-16T07:31:55;6.53;;;3.40;;
7941;SDS011;4016;50.758;7.150;2024-02-16T07:36:56;3.60;;;3.13;;
7941;SDS011;4016;50.758;7.150;2024-02-16T07:41:57;3.37;;;3.00;;
7941;SDS011;4016;50.758;7.150;2024-02-16T07:46:57;4.07;;;3.00;;
7941;SDS011;4016;50.758;7.150;2024-02-16T07:51:57;3.83;;;3.27;;
7941;SDS011;4016;50.758;7.150;2024-02-16T07:56:58;4.33;;;3.10;;
7941;SDS011;4016;50.758;7.150;2024-02-16T08:01:59;3.83;;;2.70;;
7941;SDS011;4016;50.758;7.150;2024-02-16T08:07:00;5.23;;;3.33;;
7941;SDS011;4016;50.758;7.150;2024-02-16T08:12:01;4.70;;;3.37;;
7941;SDS011;4016;50.758;7.150;2024-02-16T08:17:08;3.47;;;2.90;;
7941;SDS011;4016;50.758;7.150;2024-02-16T08:22:09;3.60;;;3.00;;
7941;SDS011;4016;50.758;7.150;2024-02-16T08:27:09;4.00;;;3.30;;
7941;SDS011;4016;50.758;7.150;2024-02-16T08:32:10;5.87;;;3.00;;
7941;SDS011;4016;50.758;7.150;2024-02-16T08:37:10;8.47;;;6.30;;
7941;SDS011;4016;50.758;7.150;2024-02-16T08:42:12;3.63;;;3.20;;
7941;SDS011;4016;50.758;7.150;2024-02-16T08:47:12;3.23;;;2.93;;
7941;SDS011;4016;50.758;7.150;2024-02-16T08:52:13;3.83;;;3.10;;
7941;SDS011;4016;50.758;7.150;2024-02-16T08:57:14;4.00;;;3.50;;
7941;SDS011;4016;50.758;7.150;2024-02-16T09:02:14;3.80;;;3.10;;
7941;SDS011;4016;50.758;7.150;2024-02-16T09:07:14;3.70;;;3.17;;
7941;SDS011;4016;50.758;7.150;2024-02-16T09:12:15;3.47;;;2.90;;
7941;SDS011;4016;50.758;7.150;2024-02-16T09:17:15;3.47;;;3.17;;
7941;SDS011;4016;50.758;7.150;2024-02-16T09:22:15;3.97;;;3.07;;
7941;SDS011;4016;50.758;7.150;2024-02-16T09:27:16;4.40;;;3.23;;
7941;SDS011;4016;50.758;7.150;2024-02-16T09:32:16;3.30;;;3.00;;
7941;SDS011;4016;50.758;7.150;2024-02-16T09:37:16;5.13;;;3.20;;
7941;SDS011;4016;50.758;7.150;2024-02-16T09:42:17;4.07;;;2.90;;
7941;SDS011;4016;50.758;7.150;2024-02-16T09:47:17;4.03;;;3.20;;
7941;SDS011;4016;50.758;7.150;2024-02-16T09:52:21;5.87;;;3.20;;
7941;SDS011;4016;50.758;7.150;2024-02-16T09:57:23;4.97;;;3.60;;
7941;SDS011;4016;50.758;7.150;2024-02-16T10:02:23;4.60;;;3.70;;
7941;SDS011;4016;50.758;7.150;2024-02-16T10:07:31;3.70;;;3.20;;
7941;SDS011;4016;50.758;7.150;2024-02-16T10:12:32;3.93;;;3.43;;
7941;SDS011;4016;50.758;7.150;2024-02-16T10:17:32;4.20;;;3.30;;
7941;SDS011;4016;50.758;7.150;2024-02-16T10:22:32;4.60;;;3.40;;
7941;SDS011;4016;50.758;7.150;2024-02-16T10:27:33;4.43;;;3.67;;
7941;SDS011;4016;50.758;7.150;2024-02-16T10:32:34;4.13;;;3.30;;
7941;SDS011;4016;50.758;7.150;2024-02-16T10:37:34;9.63;;;6.40;;
7941;SDS011;4016;50.758;7.150;2024-02-16T10:42:35;6.20;;;3.57;;
7941;SDS011;4016;50.758;7.150;2024-02-16T10:47:36;4.23;;;3.60;;
7941;SDS011;4016;50.758;7.150;2024-02-16T10:52:36;6.80;;;4.00;;
7941;SDS011;4016;50.758;7.150;2024-02-16T10:57:41;6.27;;;3.63;;
7941;SDS011;4016;50.758;7.150;2024-02-16T11:02:57;3.83;;;3.27;;
7941;SDS011;4016;50.758;7.150;2024-02-16T11:08:01;5.33;;;3.33;;
7941;SDS011;4016;50.758;7.150;2024-02-16T11:13:03;4.07;;;3.40;;
7941;SDS011;4016;50.758;7.150;2024-02-16T11:18:10;6.20;;;3.30;;
7941;SDS011;4016;50.758;7.150;2024-02-16T11:23:11;6.17;;;3.90;;
7941;SDS011;4016;50.758;7.150;2024-02-16T11:28:12;4.30;;;3.60;;
7941;SDS011;4016;50.758;7.150;2024-02-16T11:33:13;5.17;;;3.50;;
7941;SDS011;4016;50.758;7.150;2024-02-16T11:38:14;4.00;;;3.50;;
7941;SDS011;4016;50.758;7.150;2024-02-16T11:43:22;4.90;;;3.17;;
7941;SDS011;4016;50.758;7.150;2024-02-16T11:48:25;5.33;;;3.50;;
7941;SDS011;4016;50.758;7.150;2024-02-16T11:53:26;4.73;;;3.70;;
7941;SDS011;4016;50.758;7.150;2024-02-16T11:58:27;4.33;;;3.80;;
7941;SDS011;4016;50.758;7.150;2024-02-16T12:03:27;3.83;;;3.33;;
7941;SDS011;4016;50.758;7.150;2024-02-16T12:08:32;5.27;;;3.67;;
7941;SDS011;4016;50.758;7.150;2024-02-16T12:13:36;6.93;;;3.70;;
7941;SDS011;4016;50.758;7.150;2024-02-16T12:18:36;4.00;;;3.53;;
7941;SDS011;4016;50.758;7.150;2024-02-16T12:23:36;4.50;;;3.53;;
7941;SDS011;4016;50.758;7.150;2024-02-16T12:28:37;5.77;;;3.40;;
7941;SDS011;4016;50.758;7.150;2024-02-16T12:33:37;5.27;;;3.77;;
7941;SDS011;4016;50.758;7.150;2024-02-16T12:38:37;4.57;;;3.50;;
7941;SDS011;4016;50.758;7.150;2024-02-16T12:43:38;4.97;;;3.37;;
7941;SDS011;4016;50.758;7.150;2024-02-16T12:48:38;6.33;;;3.73;;
7941;SDS011;4016;50.758;7.150;2024-02-16T12:53:38;4.83;;;3.90;;
7941;SDS011;4016;50.758;7.150;2024-02-16T12:58:42;6.53;;;3.93;;
7941;SDS011;4016;50.758;7.150;2024-02-16T13:03:42;4.77;;;3.50;;
7941;SDS011;4016;50.758;7.150;2024-02-16T13:08:42;7.27;;;3.47;;
7941;SDS011;4016;50.758;7.150;2024-02-16T13:13:43;5.60;;;3.50;;
7941;SDS011;4016;50.758;7.150;2024-02-16T13:18:43;5.23;;;3.70;;
7941;SDS011;4016;50.758;7.150;2024-02-16T13:23:44;4.03;;;3.33;;
7941;SDS011;4016;50.758;7.150;2024-02-16T13:28:44;4.57;;;4.00;;
7941;SDS011;4016;50.758;7.150;2024-02-16T13:33:44;5.47;;;4.10;;
7941;SDS011;4016;50.758;7.150;2024-02-16T13:38:45;5.17;;;3.87;;
7941;SDS011;4016;50.758;7.150;2024-02-16T13:43:45;5.97;;;4.30;;
7941;SDS011;4016;50.758;7.150;2024-02-16T13:48:45;5.67;;;4.07;;
7941;SDS011;4016;50.758;7.150;2024-02-16T13:53:46;7.60;;;4.10;;
7941;SDS011;4016;50.758;7.150;2024-02-16T13:58:46;6.20;;;4.27;;
7941;SDS011;4016;50.758;7.150;2024-02-16T14:03:49;5.63;;;4.40;;
7941;SDS011;4016;50.758;7.150;2024-02-16T14:08:50;5.37;;;4.33;;
7941;SDS011;4016;50.758;7.150;2024-02-16T14:13:52;5.80;;;3.90;;
7941;SDS011;4016;50.758;7.150;2024-02-16T14:18:53;7.67;;;4.40;;
7941;SDS011;4016;50.758;7.150;2024-02-16T14:23:53;7.93;;;4.37;;
7941;SDS011;4016;50.758;7.150;2024-02-16T14:28:53;6.00;;;4.10;;
7941;SDS011;4016;50.758;7.150;2024-02-16T14:33:55;7.03;;;4.67;;
7941;SDS011;4016;50.758;7.150;2024-02-16T14:38:56;5.20;;;4.70;;
7941;SDS011;4016;50.758;7.150;2024-02-16T14:43:56;5.97;;;4.20;;
7941;SDS011;4016;50.758;7.150;2024-02-16T14:48:57;6.20;;;4.60;;
7941;SDS011;4016;50.758;7.150;2024-02-16T14:53:57;4.57;;;4.13;;
7941;SDS011;4016;50.758;7.150;2024-02-16T14:58:57;5.13;;;4.37;;
7941;SDS011;4016;50.758;7.150;2024-02-16T15:03:58;5.07;;;4.20;;
7941;SDS011;4016;50.758;7.150;2024-02-16T15:08:59;7.87;;;4.57;;
7941;SDS011;4016;50.758;7.150;2024-02-16T15:13:59;6.10;;;4.30;;
7941;SDS011;4016;50.758;7.150;2024-02-16T15:19:00;6.30;;;4.37;;
7941;SDS011;4016;50.758;7.150;2024-02-16T15:24:02;6.10;;;4.50;;
7941;SDS011;4016;50.758;7.150;2024-02-16T15:29:03;4.93;;;4.07;;
7941;SDS011;4016;50.758;7.150;2024-02-16T15:34:03;5.93;;;4.90;;
7941;SDS011;4016;50.758;7.150;2024-02-16T15:39:03;9.77;;;4.90;;
7941;SDS011;4016;50.758;7.150;2024-02-16T15:44:04;8.00;;;4.43;;
7941;SDS011;4016;50.758;7.150;2024-02-16T15:49:05;5.73;;;4.27;;
7941;SDS011;4016;50.758;7.150;2024-02-16T15:54:05;5.77;;;4.60;;
7941;SDS011;4016;50.758;7.150;2024-02-16T15:59:06;4.93;;;4.47;;
7941;SDS011;4016;50.758;7.150;2024-02-16T16:04:06;5.57;;;4.03;;
7941;SDS011;4016;50.758;7.150;2024-02-16T16:09:06;6.70;;;4.50;;
7941;SDS011;4016;50.758;7.150;2024-02-16T16:14:08;6.47;;;5.13;;
7941;SDS011;4016;50.758;7.150;2024-02-16T16:19:10;8.00;;;5.47;;
7941;SDS011;4016;50.758;7.150;2024-02-16T16:24:11;6.67;;;4.87;;
7941;SDS011;4016;50.758;7.150;2024-02-16T16:29:13;8.47;;;5.23;;
7941;SDS011;4016;50.758;7.150;2024-02-16T16:34:15;7.67;;;5.60;;
7941;SDS011;4016;50.758;7.150;2024-02-16T16:39:15;8.13;;;6.27;;
7941;SDS011;4016;50.758;7.150;2024-02-16T16:44:17;6.73;;;5.80;;
7941;SDS011;4016;50.758;7.150;2024-02-16T16:49:22;8.87;;;6.83;;
7941;SDS011;4016;50.758;7.150;2024-02-16T16:54:22;7.60;;;6.10;;
7941;SDS011;4016;50.758;7.150;2024-02-16T16:59:23;4.87;;;4.07;;
7941;SDS011;4016;50.758;7.150;2024-02-16T17:04:24;4.47;;;3.83;;
7941;SDS011;4016;50.758;7.150;2024-02-16T17:09:24;5.27;;;3.50;;
7941;SDS011;4016;50.758;7.150;2024-02-16T17:14:25;5.33;;;3.63;;
7941;SDS011;4016;50.758;7.150;2024-02-16T17:19:25;3.30;;;3.10;;
7941;SDS011;4016;50.758;7.150;2024-02-16T17:24:25;3.80;;;3.50;;
7941;SDS011;4016;50.758;7.150;2024-02-16T17:29:30;5.57;;;4.50;;
7941;SDS011;4016;50.758;7.150;2024-02-16T17:34:30;6.13;;;5.53;;
7941;SDS011;4016;50.758;7.150;2024-02-16T17:39:32;6.03;;;5.43;;
7941;SDS011;4016;50.758;7.150;2024-02-16T17:44:33;8.07;;;5.57;;
7941;SDS011;4016;50.758;7.150;2024-02-16T17:49:33;6.20;;;5.60;;
7941;SDS011;4016;50.758;7.150;2024-02-16T17:54:33;7.70;;;7.00;;
7941;SDS011;4016;50.758;7.150;2024-02-16T17:59:34;8.03;;;7.23;;
7941;SDS011;4016;50.758;7.150;2024-02-16T18:04:35;8.00;;;7.20;;
7941;SDS011;4016;50.758;7.150;2024-02-16T18:09:35;8.57;;;7.00;;
7941;SDS011;4016;50.758;7.150;2024-02-16T18:14:36;7.07;;;6.20;;
7941;SDS011;4016;50.758;7.150;2024-02-16T18:19:37;7.60;;;6.80;;
7941;SDS011;4016;50.758;7.150;2024-02-16T18:24:39;7.87;;;6.90;;
7941;SDS011;4016;50.758;7.150;2024-02-16T18:29:39;9.23;;;8.23;;
7941;SDS011;4016;50.758;7.150;2024-02-16T18:34:41;10.10;;;9.10;;
7941;SDS011;4016;50.758;7.150;2024-02-16T18:39:43;10.07;;;8.17;;
7941;SDS011;4016;50.758;7.150;2024-02-16T18:44:44;9.10;;;8.20;;
7941;SDS011;4016;50.758;7.150;2024-02-16T18:49:45;7.90;;;7.10;;
7941;SDS011;4016;50.758;7.150;2024-02-16T18:54:47;7.53;;;6.20;;
7941;SDS011;4016;50.758;7.150;2024-02-16T18:59:48;7.37;;;6.47;;
7941;SDS011;4016;50.758;7.150;2024-02-16T19:04:49;7.97;;;6.67;;
7941;SDS011;4016;50.758;7.150;2024-02-16T19:09:49;9.07;;;8.17;;
7941;SDS011;4016;50.758;7.150;2024-02-16T19:14:52;9.60;;;8.60;;
7941;SDS011;4016;50.758;7.150;2024-02-16T19:19:53;11.97;;;10.10;;
7941;SDS011;4016;50.758;7.150;2024-02-16T19:24:53;12.93;;;10.40;;
7941;SDS011;4016;50.758;7.150;2024-02-16T19:29:53;11.93;;;10.67;;
7941;SDS011;4016;50.758;7.150;2024-02-16T19:34:55;11.37;;;9.43;;
7941;SDS011;4016;50.758;7.150;2024-02-16T19:39:56;10.27;;;9.17;;
7941;SDS011;4016;50.758;7.150;2024-02-16T19:44:56;10.50;;;8.33;;
7941;SDS011;4016;50.758;7.150;2024-02-16T19:49:56;9.97;;;8.97;;
7941;SDS011;4016;50.758;7.150;2024-02-16T19:54:57;9.33;;;8.33;;
7941;SDS011;4016;50.758;7.150;2024-02-16T19:59:58;8.97;;;8.07;;
7941;SDS011;4016;50.758;7.150;2024-02-16T20:04:59;9.43;;;8.53;;
7941;SDS011;4016;50.758;7.150;2024-02-16T20:09:59;9.93;;;7.80;;
7941;SDS011;4016;50.758;7.150;2024-02-16T20:15:00;9.90;;;8.90;;
7941;SDS011;4016;50.758;7.150;2024-02-16T20:20:01;9.87;;;8.87;;
7941;SDS011;4016;50.758;7.150;2024-02-16T20:25:05;9.23;;;8.33;;
7941;SDS011;4016;50.758;7.150;2024-02-16T20:30:07;8.80;;;7.87;;
7941;SDS011;4016;50.758;7.150;2024-02-16T20:35:08;9.77;;;7.70;;
7941;SDS011;4016;50.758;7.150;2024-02-16T20:40:09;10.73;;;8.50;;
7941;SDS011;4016;50.758;7.150;2024-02-16T20:45:10;11.20;;;8.77;;
7941;SDS011;4016;50.758;7.150;2024-02-16T20:50:14;9.40;;;8.40;;
7941;SDS011;4016;50.758;7.150;2024-02-16T20:55:16;10.37;;;7.87;;
7941;SDS011;4016;50.758;7.150;2024-02-16T21:00:16;9.63;;;7.80;;
7941;SDS011;4016;50.758;7.150;2024-02-16T21:05:17;9.27;;;8.07;;
7941;SDS011;4016;50.758;7.150;2024-02-16T21:10:19;9.77;;;8.67;;
7941;SDS011;4016;50.758;7.150;2024-02-16T21:15:20;8.73;;;7.47;;
7941;SDS011;4016;50.758;7.150;2024-02-16T21:20:21;8.73;;;7.83;;
7941;SDS011;4016;50.758;7.150;2024-02-16T21:25:21;9.43;;;8.00;;
7941;SDS011;4016;50.758;7.150;2024-02-16T21:30:22;9.43;;;8.43;;
7941;SDS011;4016;50.758;7.150;2024-02-16T21:35:22;9.93;;;8.00;;
7941;SDS011;4016;50.758;7.150;2024-02-16T21:40:22;10.80;;;9.70;;
7941;SDS011;4016;50.758;7.150;2024-02-16T21:45:24;10.03;;;9.03;;
7941;SDS011;4016;50.758;7.150;2024-02-16T21:50:25;11.87;;;9.17;;
7941;SDS011;4016;50.758;7.150;2024-02-16T21:55:26;10.43;;;9.20;;
7941;SDS011;4016;50.758;7.150;2024-02-16T22:00:26;9.97;;;8.70;;
7941;SDS011;4016;50.758;7.150;2024-02-16T22:05:27;11.23;;;9.40;;
7941;SDS011;4016;50.758;7.150;2024-02-16T22:10:27;9.20;;;8.30;;
7941;SDS011;4016;50.758;7.150;2024-02-16T22:15:31;9.87;;;8.67;;
7941;SDS011;4016;50.758;7.150;2024-02-16T22:20:32;10.87;;;9.43;;
7941;SDS011;4016;50.758;7.150;2024-02-16T22:25:34;10.67;;;9.50;;
7941;SDS011;4016;50.758;7.150;2024-02-16T22:30:36;11.73;;;9.50;;
7941;SDS011;4016;50.758;7.150;2024-02-16T22:35:37;11.77;;;9.67;;
7941;SDS011;4016;50.758;7.150;2024-02-16T22:40:38;12.63;;;10.03;;
7941;SDS011;4016;50.758;7.150;2024-02-16T22:45:38;13.57;;;10.33;;
7941;SDS011;4016;50.758;7.150;2024-02-16T22:50:41;13.33;;;10.70;;
7941;SDS011;4016;50.758;7.150;2024-02-16T22:55:42;13.07;;;10.57;;
7941;SDS011;4016;50.758;7.150;2024-02-16T23:00:45;13.10;;;10.93;;
7941;SDS011;4016;50.758;7.150;2024-02-16T23:05:46;13.13;;;11.00;;
7941;SDS011;4016;50.758;7.150;2024-02-16T23:10:47;17.70;;;11.87;;
7941;SDS011;4016;50.758;7.150;2024-02-16T23:15:47;15.83;;;12.30;;
7941;SDS011;4016;50.758;7.150;2024-02-16T23:20:48;16.50;;;13.10;;
7941;SDS011;4016;50.758;7.150;2024-02-16T23:25:48;18.33;;;13.73;;
7941;SDS011;4016;50.758;7.150;2024-02-16T23:30:49;17.90;;;14.37;;
7941;SDS011;4016;50.758;7.150;2024-02-16T23:35:50;21.03;;;15.07;;
7941;SDS011;4016;50.758;7.150;2024-02-16T23:40:50;16.73;;;13.00;;
7941;SDS011;4016;50.758;7.150;2024-02-16T23:45:51;18.67;;;11.40;;
7941;SDS011;4016;50.758;7.150;2024-02-16T23:50:51;16.20;;;11.60;;
7941;SDS011;4016;50.758;7.150;2024-02-16T23:55:51;13.60;;;10.87;;
